Time;durP1;ratioP1;P1;durP2;ratioP2;P2;SDS_P1;SDS_P2;PMS_P1;PMS_P2;Temp;Humidity;BMP_temperature;BMP_pressure;BME280_temperature;BME280_humidity;BME280_pressure;Samples;Min_cycle;Max_cycle;Signal;HPM_P1;HPM_P2
2023/03/06 00:02:23;;;;;;;13.50;11.30;;;;;;;7.58;68.37;98795.94;5112117;28;20201;-61
2023/03/06 00:04:52;;;;;;;17.30;12.63;;;;;;;7.61;67.55;98801.88;5112200;28;20228;-58
2023/03/06 00:07:19;;;;;;;15.53;12.23;;;;;;;7.65;68.02;98802.63;5112349;28;20249;-58
2023/03/06 00:09:47;;;;;;;16.93;11.87;;;;;;;7.64;67.17;98806.97;5112241;28;20191;-58
2023/03/06 00:12:14;;;;;;;16.83;13.10;;;;;;;7.66;67.24;98809.50;5111973;28;20206;-57
2023/03/06 00:14:41;;;;;;;15.03;11.23;;;;;;;7.59;66.28;98813.97;5111892;28;20671;-57
2023/03/06 00:17:07;;;;;;;14.83;11.90;;;;;;;7.62;66.49;98813.91;5111725;28;20203;-58
2023/03/06 00:19:34;;;;;;;15.50;11.77;;;;;;;7.61;66.40;98817.34;5111598;28;20199;-59
2023/03/06 00:22:02;;;;;;;15.27;11.87;;;;;;;7.57;67.36;98810.56;5111757;28;20199;-60
2023/03/06 00:24:29;;;;;;;19.23;12.47;;;;;;;7.46;67.28;98811.75;5111636;28;20218;-60
2023/03/06 00:26:57;;;;;;;17.23;12.30;;;;;;;7.47;67.83;98821.19;5111748;28;20663;-60
2023/03/06 00:29:24;;;;;;;16.40;11.80;;;;;;;7.47;66.79;98824.63;5111475;28;20203;-58
2023/03/06 00:31:51;;;;;;;19.30;12.17;;;;;;;7.42;67.51;98821.34;5111691;28;20190;-59
2023/03/06 00:34:17;;;;;;;15.40;11.30;;;;;;;7.42;67.71;98820.50;5111299;28;20205;-61
2023/03/06 00:36:44;;;;;;;16.93;11.57;;;;;;;7.35;67.61;98824.13;5111614;28;20565;-58
2023/03/06 00:39:11;;;;;;;14.70;12.00;;;;;;;7.36;67.79;98825.81;5111426;28;20198;-58
2023/03/06 00:41:38;;;;;;;16.17;11.73;;;;;;;7.44;67.92;98829.06;5111134;28;20219;-57
2023/03/06 00:44:07;;;;;;;15.53;11.73;;;;;;;7.49;66.67;98829.75;5111137;28;20218;-60
2023/03/06 00:46:34;;;;;;;15.07;11.80;;;;;;;7.44;67.27;98834.22;5110847;28;20197;-58
2023/03/06 00:49:00;;;;;;;16.07;11.87;;;;;;;7.43;68.25;98835.94;5111076;28;20194;-59
2023/03/06 00:51:27;;;;;;;21.20;12.90;;;;;;;7.48;67.65;98836.66;5110984;28;20195;-59
2023/03/06 00:53:54;;;;;;;19.83;12.17;;;;;;;7.44;68.14;98826.47;5111553;28;20202;-61
2023/03/06 00:56:21;;;;;;;14.33;12.10;;;;;;;7.39;68.02;98836.06;5111302;28;20698;-61
2023/03/06 00:58:48;;;;;;;18.27;11.90;;;;;;;7.31;68.47;98832.84;5111549;28;20199;-60
2023/03/06 01:01:16;;;;;;;18.57;11.80;;;;;;;7.34;68.33;98835.31;5110975;28;20603;-58
2023/03/06 01:03:43;;;;;;;19.10;11.80;;;;;;;7.32;68.14;98835.41;5110686;28;20195;-60
2023/03/06 01:06:10;;;;;;;19.50;12.60;;;;;;;7.38;68.85;98837.78;5111012;28;20205;-60
2023/03/06 01:08:37;;;;;;;16.10;12.10;;;;;;;7.43;68.25;98840.28;5110651;28;20237;-59
2023/03/06 01:11:04;;;;;;;15.13;11.67;;;;;;;7.45;68.16;98831.56;5110920;28;20195;-57
2023/03/06 01:13:31;;;;;;;16.73;11.93;;;;;;;7.46;69.13;98840.16;5110523;28;20209;-57
2023/03/06 01:16:06;;;;;;;18.53;13.70;;;;;;;7.41;68.22;98837.72;5110655;28;20201;-59
2023/03/06 01:18:34;;;;;;;17.80;13.13;;;;;;;7.40;68.06;98830.88;5110687;28;20703;-60
2023/03/06 01:21:01;;;;;;;15.20;11.87;;;;;;;7.32;68.60;98822.50;5110884;28;20205;-61
2023/03/06 01:23:28;;;;;;;15.23;12.17;;;;;;;7.28;68.64;98829.47;5111162;28;20202;-61
2023/03/06 01:25:55;;;;;;;18.93;12.97;;;;;;;7.29;68.46;98828.56;5111548;28;20226;-61
2023/03/06 01:28:22;;;;;;;14.13;11.57;;;;;;;7.28;68.56;98829.47;5111111;28;20208;-59
2023/03/06 01:30:49;;;;;;;16.73;12.03;;;;;;;7.25;68.49;98833.84;5111175;28;20203;-59
2023/03/06 01:33:16;;;;;;;18.63;12.10;;;;;;;7.27;68.06;98837.22;5111572;28;20646;-60
2023/03/06 01:35:45;;;;;;;14.53;11.70;;;;;;;7.27;68.07;98837.22;5111152;28;20558;-58
2023/03/06 01:38:12;;;;;;;18.23;12.13;;;;;;;7.26;68.88;98835.53;5111039;28;20196;-60
2023/03/06 01:40:39;;;;;;;16.50;12.13;;;;;;;7.21;68.86;98827.94;5110674;28;20713;-60
2023/03/06 01:43:11;;;;;;;16.60;11.47;;;;;;;7.24;68.60;98830.41;5110933;28;20194;-60
2023/03/06 01:46:15;;;;;;;17.70;12.87;;;;;;;7.36;68.74;98836.97;5110852;28;20316;-60
2023/03/06 01:48:43;;;;;;;16.43;11.40;;;;;;;7.28;68.47;98834.63;5110745;28;20232;-59
2023/03/06 01:51:12;;;;;;;17.40;11.93;;;;;;;7.28;69.04;98838.94;5110548;28;20199;-59
2023/03/06 01:53:42;;;;;;;14.20;11.23;;;;;;;7.32;68.12;98844.88;5111064;28;20641;-59
2023/03/06 01:56:10;;;;;;;20.30;12.50;;;;;;;7.25;67.86;98833.84;5111092;28;20903;-60
2023/03/06 01:58:38;;;;;;;16.27;12.13;;;;;;;7.32;68.48;98850.03;5110844;28;20198;-59
2023/03/06 02:01:05;;;;;;;16.33;12.17;;;;;;;7.24;68.91;98843.31;5110991;28;20657;-60
2023/03/06 02:03:33;;;;;;;16.77;12.07;;;;;;;7.21;67.96;98843.41;5110713;28;20200;-59
2023/03/06 02:06:00;;;;;;;17.67;12.63;;;;;;;7.22;68.04;98855.41;5110744;28;20225;-60
2023/03/06 02:08:30;;;;;;;15.80;11.77;;;;;;;7.12;67.84;98848.78;5110761;28;20204;-58
2023/03/06 02:11:01;;;;;;;17.23;12.27;;;;;;;7.15;69.51;98846.13;5110994;28;20221;-59
2023/03/06 02:13:28;;;;;;;17.17;12.33;;;;;;;7.22;68.79;98855.41;5110779;28;20206;-61
2023/03/06 02:15:55;;;;;;;15.23;12.30;;;;;;;7.19;68.49;98846.91;5110774;28;20201;-61
2023/03/06 02:18:22;;;;;;;16.80;12.67;;;;;;;7.10;69.11;98858.34;5110406;28;20905;-58
2023/03/06 02:20:53;;;;;;;20.53;13.13;;;;;;;6.92;69.41;98841.56;5110896;28;20697;-58
2023/03/06 02:23:32;;;;;;;17.97;12.33;;;;;;;6.99;70.55;98860.34;5110613;28;20209;-59
2023/03/06 02:26:02;;;;;;;15.23;12.23;;;;;;;6.94;70.07;98862.16;5110614;28;20222;-58
2023/03/06 02:28:29;;;;;;;17.47;12.63;;;;;;;6.93;70.61;98870.78;5110491;28;20290;-60
2023/03/06 02:30:57;;;;;;;17.17;12.07;;;;;;;6.91;71.09;98870.81;5110435;28;20191;-61
2023/03/06 02:33:26;;;;;;;15.17;12.63;;;;;;;6.82;69.91;98865.03;5110733;28;20639;-57
2023/03/06 02:35:54;;;;;;;17.97;13.23;;;;;;;6.86;70.13;98874.41;5110702;28;20675;-61
2023/03/06 02:38:27;;;;;;;16.13;12.47;;;;;;;6.81;70.17;98869.34;5110260;28;20194;-59
2023/03/06 02:40:56;;;;;;;15.67;11.83;;;;;;;6.90;70.23;98879.44;5110514;28;20199;-60
2023/03/06 02:43:29;;;;;;;18.00;12.90;;;;;;;6.83;70.20;98872.75;5110148;28;20230;-60
2023/03/06 02:45:56;;;;;;;18.57;12.27;;;;;;;6.79;70.46;98870.25;5110560;28;20733;-60
2023/03/06 02:48:23;;;;;;;16.83;12.30;;;;;;;6.71;71.42;98872.19;5110195;28;20234;-61
2023/03/06 02:50:50;;;;;;;17.57;12.23;;;;;;;6.68;70.71;98872.25;5110545;28;20296;-61
2023/03/06 02:53:19;;;;;;;17.47;12.57;;;;;;;6.62;72.36;98867.25;5110397;28;20199;-61
2023/03/06 02:55:47;;;;;;;20.07;12.77;;;;;;;6.52;72.30;98870.03;5110219;28;20672;-58
2023/03/06 02:58:14;;;;;;;18.23;12.00;;;;;;;6.51;72.66;98865.78;5110579;28;20207;-59
2023/03/06 03:00:42;;;;;;;16.37;12.50;;;;;;;6.45;72.37;98876.19;5110165;28;20245;-60
2023/03/06 03:03:09;;;;;;;18.80;12.73;;;;;;;6.42;73.16;98870.28;5111971;28;20199;-60
2023/03/06 03:05:36;;;;;;;17.27;12.07;;;;;;;6.40;72.88;98872.03;5114071;28;20222;-60
2023/03/06 03:08:03;;;;;;;17.10;13.13;;;;;;;6.44;73.20;98871.06;5114272;28;20713;-60
2023/03/06 03:10:30;;;;;;;16.53;12.47;;;;;;;6.38;72.45;98873.81;5113966;28;20586;-60
2023/03/06 03:12:58;;;;;;;17.73;12.17;;;;;;;6.28;72.80;98865.44;5114139;28;20301;-58
2023/03/06 03:15:25;;;;;;;17.33;12.73;;;;;;;6.27;73.07;98874.03;5113874;28;20209;-58
2023/03/06 03:17:53;;;;;;;19.17;13.70;;;;;;;6.31;73.01;98867.94;5113841;28;20187;-57
2023/03/06 03:20:22;;;;;;;20.67;12.80;;;;;;;6.35;73.02;98863.56;5113629;28;20197;-59
2023/03/06 03:22:50;;;;;;;18.67;12.97;;;;;;;6.33;73.14;98873.91;5113681;28;20187;-61
2023/03/06 03:25:17;;;;;;;19.07;12.60;;;;;;;6.34;74.05;98880.75;5113986;28;20227;-60
2023/03/06 03:27:44;;;;;;;19.60;13.20;;;;;;;6.30;73.78;98870.56;5113632;28;20593;-61
2023/03/06 03:30:12;;;;;;;17.93;12.77;;;;;;;6.22;73.38;98870.69;5113774;28;20577;-58
2023/03/06 03:32:39;;;;;;;18.40;13.33;;;;;;;6.17;73.96;98875.13;5113301;28;20197;-58
2023/03/06 03:35:10;;;;;;;21.90;13.37;;;;;;;6.10;75.42;98861.50;5113741;28;20190;-59
2023/03/06 03:37:38;;;;;;;20.23;12.90;;;;;;;6.20;74.84;98875.06;5113194;28;20194;-58
2023/03/06 03:40:06;;;;;;;21.33;12.93;;;;;;;6.23;75.90;98880.13;5113448;28;20201;-59
2023/03/06 03:42:33;;;;;;;18.83;12.33;;;;;;;6.27;75.22;98874.03;5113250;28;20204;-58
2023/03/06 03:45:00;;;;;;;19.67;12.87;;;;;;;6.29;74.67;98879.16;5113215;28;20223;-59
2023/03/06 03:47:27;;;;;;;19.20;13.53;;;;;;;6.23;74.83;98877.56;5112734;28;20236;-58
2023/03/06 03:49:54;;;;;;;26.37;12.80;;;;;;;6.15;74.88;98879.47;5113100;28;20191;-59
2023/03/06 03:52:22;;;;;;;18.87;13.63;;;;;;;6.12;75.42;98869.22;5112837;28;20195;-60
2023/03/06 03:54:49;;;;;;;18.63;13.30;;;;;;;6.03;75.80;98872.81;5112695;28;20190;-59
2023/03/06 03:57:16;;;;;;;18.47;13.63;;;;;;;6.07;76.04;98881.34;5112603;28;20303;-59
2023/03/06 03:59:43;;;;;;;24.17;14.73;;;;;;;5.95;75.68;98874.72;5112363;28;20598;-59
2023/03/06 04:02:10;;;;;;;21.70;13.37;;;;;;;5.93;76.22;98873.91;5112457;28;20205;-58
2023/03/06 04:04:36;;;;;;;18.10;13.63;;;;;;;5.93;75.63;98875.63;5112125;28;20575;-58
2023/03/06 04:07:04;;;;;;;23.30;13.63;;;;;;;5.90;74.51;98873.09;5112339;28;20577;-57
2023/03/06 04:09:32;;;;;;;21.67;13.40;;;;;;;5.93;75.09;98880.78;5111684;28;20231;-60
2023/03/06 04:11:59;;;;;;;21.27;13.70;;;;;;;5.99;74.64;98886.63;5112137;28;20201;-59
2023/03/06 04:14:26;;;;;;;20.83;13.73;;;;;;;6.02;74.38;98886.59;5111826;28;20197;-59
2023/03/06 04:16:53;;;;;;;21.20;13.57;;;;;;;6.11;74.70;98891.53;5112570;28;20195;-59
2023/03/06 04:19:20;;;;;;;22.00;13.57;;;;;;;6.14;74.58;98888.06;5111821;28;20590;-58
2023/03/06 04:21:46;;;;;;;21.23;13.70;;;;;;;6.14;74.07;98895.78;5111862;28;20198;-60
2023/03/06 04:24:14;;;;;;;20.67;12.17;;;;;;;6.15;73.61;98895.75;5111557;28;20208;-60
2023/03/06 04:26:42;;;;;;;19.20;13.63;;;;;;;6.17;73.37;98899.16;5112028;28;20226;-58
2023/03/06 04:29:09;;;;;;;19.33;12.87;;;;;;;6.17;72.89;98898.31;5112622;28;20205;-58
2023/03/06 04:31:36;;;;;;;17.33;12.27;;;;;;;6.20;73.49;98911.13;5112269;28;20190;-58
2023/03/06 04:34:03;;;;;;;17.83;11.93;;;;;;;6.23;73.27;98905.91;5112293;28;20207;-57
2023/03/06 04:36:31;;;;;;;18.13;13.77;;;;;;;6.22;73.41;98911.94;5112586;28;20572;-57
2023/03/06 04:38:59;;;;;;;17.97;13.00;;;;;;;6.24;72.76;98906.75;5104232;28;20195;-59
2023/03/06 04:41:26;;;;;;;18.90;12.37;;;;;;;6.22;72.66;98911.09;5110286;28;20593;-59
2023/03/06 04:43:54;;;;;;;22.83;13.53;;;;;;;6.25;72.59;98906.72;5108007;28;20252;-58
2023/03/06 04:46:21;;;;;;;20.10;12.50;;;;;;;6.17;73.34;98914.63;5108252;28;20227;-58
2023/03/06 04:48:48;;;;;;;18.80;12.30;;;;;;;6.24;73.23;98917.91;5105615;28;20242;-59
2023/03/06 04:51:15;;;;;;;19.23;13.33;;;;;;;6.14;73.89;98916.41;5110724;28;20206;-58
2023/03/06 04:53:42;;;;;;;21.87;13.83;;;;;;;6.18;74.00;98923.19;5111394;28;20194;-58
2023/03/06 04:56:09;;;;;;;21.73;14.27;;;;;;;6.21;73.47;98919.72;5111736;28;20186;-58
2023/03/06 04:58:36;;;;;;;16.87;12.20;;;;;;;6.20;74.25;98918.88;5111414;28;20559;-58
2023/03/06 05:01:04;;;;;;;21.37;14.47;;;;;;;6.30;73.57;98928.09;5111582;28;20194;-59
2023/03/06 05:03:32;;;;;;;23.00;13.47;;;;;;;6.30;77.27;98912.63;5103943;27;20269;-61
2023/03/06 05:05:59;;;;;;;28.30;15.20;;;;;;;6.52;74.13;98929.34;5110410;28;20222;-62
2023/03/06 05:08:26;;;;;;;24.00;14.50;;;;;;;6.63;73.48;98933.41;5109810;28;20236;-60
2023/03/06 05:10:58;;;;;;;23.50;14.00;;;;;;;6.69;72.08;98936.69;5123393;27;20214;-59
2023/03/06 05:13:26;;;;;;;19.13;14.40;;;;;;;6.74;71.97;98942.59;5122864;27;20228;-61
2023/03/06 05:15:53;;;;;;;24.07;14.97;;;;;;;6.77;72.68;98946.84;5111720;27;20248;-60
2023/03/06 05:18:21;;;;;;;27.13;15.80;;;;;;;6.83;72.51;98938.97;5109798;28;20615;-60
2023/03/06 05:20:48;;;;;;;17.63;13.57;;;;;;;7.01;71.14;98938.53;5110450;28;20314;-59
2023/03/06 05:23:15;;;;;;;23.43;14.50;;;;;;;7.00;71.38;98941.97;5123191;27;20233;-59
2023/03/06 05:25:42;;;;;;;20.57;14.20;;;;;;;7.00;70.49;98947.13;5110483;28;20222;-60
2023/03/06 05:28:09;;;;;;;21.67;13.23;;;;;;;7.18;70.41;98954.47;5109609;28;20234;-60
2023/03/06 05:30:36;;;;;;;23.57;14.00;;;;;;;7.30;70.26;98961.06;5110869;28;20226;-60
2023/03/06 05:33:03;;;;;;;21.73;13.90;;;;;;;7.48;69.67;98967.50;5110447;28;20223;-59
2023/03/06 05:35:31;;;;;;;21.80;14.00;;;;;;;7.62;69.01;98968.84;5110671;28;20568;-60
2023/03/06 05:37:58;;;;;;;24.43;14.17;;;;;;;7.79;68.76;98967.56;5110647;28;20226;-60
2023/03/06 05:40:25;;;;;;;23.03;13.57;;;;;;;7.91;68.18;98974.97;5110825;28;20206;-59
2023/03/06 05:42:52;;;;;;;22.97;14.20;;;;;;;8.39;67.58;98972.81;5110496;28;20206;-59
2023/03/06 05:45:19;;;;;;;23.43;14.70;;;;;;;9.51;64.11;98980.56;5110688;28;20205;-59
2023/03/06 05:47:46;;;;;;;17.63;13.37;;;;;;;10.83;59.69;98981.91;5110628;28;20231;-60
2023/03/06 05:50:13;;;;;;;21.37;13.83;;;;;;;11.89;55.92;98989.72;5111236;28;20666;-61
2023/03/06 05:52:42;;;;;;;19.80;14.07;;;;;;;12.92;52.98;98999.88;5109217;28;20198;-60
2023/03/06 05:55:11;;;;;;;19.67;14.17;;;;;;;13.61;50.64;99010.50;5110868;28;20200;-60
2023/03/06 05:57:38;;;;;;;19.97;13.07;;;;;;;14.60;48.39;99009.78;5110685;28;20198;-60
2023/03/06 06:00:07;;;;;;;19.77;13.90;;;;;;;15.51;46.13;99012.59;5111153;28;20684;-60
2023/03/06 06:02:34;;;;;;;18.70;14.03;;;;;;;16.48;43.33;99004.22;5110959;28;20650;-60
2023/03/06 06:05:01;;;;;;;19.00;14.73;;;;;;;17.49;41.63;99022.34;5110977;28;20195;-60
2023/03/06 06:07:28;;;;;;;15.90;13.03;;;;;;;18.00;38.80;99022.50;5110545;28;20226;-61
2023/03/06 06:09:56;;;;;;;14.90;13.00;;;;;;;18.48;37.48;99020.97;5110856;28;20213;-61
2023/03/06 06:12:23;;;;;;;16.25;13.50;;;;;;;18.21;37.04;98986.06;5110629;28;20220;-63
2023/03/06 06:14:50;;;;;;;20.35;14.23;;;;;;;19.30;35.95;99033.53;5110814;28;20195;-61
2023/03/06 06:17:17;;;;;;;18.77;13.45;;;;;;;20.02;33.74;99023.84;5110884;28;20279;-61
2023/03/06 06:19:44;;;;;;;17.73;13.57;;;;;;;20.11;33.30;99020.50;5110713;28;20206;-61
2023/03/06 06:22:11;;;;;;;20.55;14.45;;;;;;;20.53;32.55;99028.78;5110576;28;20201;-59
2023/03/06 06:24:38;;;;;;;16.80;12.90;;;;;;;21.06;31.68;99032.47;5110794;28;20669;-62
2023/03/06 06:27:07;;;;;;;16.83;13.43;;;;;;;21.49;31.39;99034.34;5110046;28;20218;-60
2023/03/06 06:29:35;;;;;;;13.70;11.88;;;;;;;21.70;30.09;99038.69;5109710;28;20199;-62
2023/03/06 06:32:02;;;;;;;15.80;12.90;;;;;;;22.29;29.75;99040.00;5109986;28;20198;-61
2023/03/06 06:34:30;;;;;;;16.98;13.85;;;;;;;22.29;29.39;99045.31;5109572;28;20186;-60
2023/03/06 06:36:57;;;;;;;16.13;13.07;;;;;;;23.08;28.50;99039.31;5110241;28;20187;-60
2023/03/06 06:39:25;;;;;;;16.20;12.75;;;;;;;23.57;27.53;99040.28;5114017;28;20234;-61
2023/03/06 06:41:52;;;;;;;16.15;12.95;;;;;;;23.56;27.60;99038.63;5114099;28;20666;-62
2023/03/06 06:44:20;;;;;;;15.02;12.57;;;;;;;24.02;26.75;99042.38;5114767;28;20197;-61
2023/03/06 06:46:49;;;;;;;16.45;12.55;;;;;;;24.33;26.29;99048.38;5114066;28;20239;-62
2023/03/06 06:49:16;;;;;;;14.75;13.25;;;;;;;25.30;25.65;99047.88;5114459;28;20194;-62
2023/03/06 06:51:43;;;;;;;14.90;12.52;;;;;;;25.24;25.31;99048.50;5114093;28;20201;-60
2023/03/06 06:54:11;;;;;;;19.35;13.15;;;;;;;25.16;25.38;99048.41;5113096;28;20194;-60
2023/03/06 06:56:38;;;;;;;14.75;13.23;;;;;;;25.23;25.09;99054.78;5111678;28;20226;-59
2023/03/06 06:59:05;;;;;;;13.93;12.55;;;;;;;25.17;25.18;99057.22;5113026;28;20244;-61
2023/03/06 07:01:33;;;;;;;14.65;13.20;;;;;;;25.27;25.16;99048.19;5112321;28;20696;-61
2023/03/06 07:04:00;;;;;;;16.95;13.20;;;;;;;26.28;24.50;99057.69;5112872;28;20190;-59
2023/03/06 07:06:27;;;;;;;14.75;13.32;;;;;;;26.38;23.84;99054.94;5113043;28;20219;-61
2023/03/06 07:08:54;;;;;;;14.35;12.63;;;;;;;26.44;24.17;99054.28;5113626;28;20218;-62
2023/03/06 07:11:21;;;;;;;16.50;13.10;;;;;;;26.50;23.59;99050.19;5113787;28;20578;-59
2023/03/06 07:13:48;;;;;;;14.30;12.90;;;;;;;26.96;22.83;99059.63;5112999;28;20202;-59
2023/03/06 07:16:17;;;;;;;14.35;13.07;;;;;;;27.71;22.59;99060.56;5113819;28;20186;-62
2023/03/06 07:18:45;;;;;;;16.75;13.00;;;;;;;27.91;22.27;99064.59;5111571;28;20557;-60
2023/03/06 07:21:12;;;;;;;17.20;13.18;;;;;;;28.09;22.14;99070.63;5092824;28;20314;-59
2023/03/06 07:23:39;;;;;;;14.65;13.25;;;;;;;27.73;22.27;99066.56;5092563;28;20715;-59
2023/03/06 07:26:07;;;;;;;14.90;13.32;;;;;;;27.11;22.62;99071.34;5093037;28;20262;-60
2023/03/06 07:28:34;;;;;;;16.95;13.32;;;;;;;25.70;23.94;99075.09;5091899;28;20223;-61
2023/03/06 07:31:01;;;;;;;14.88;13.27;;;;;;;23.49;26.41;99072.72;5107036;28;20566;-60
2023/03/06 07:33:28;;;;;;;15.50;13.73;;;;;;;21.45;28.79;99068.06;5117654;27;20217;-60
2023/03/06 07:35:56;;;;;;;23.42;15.10;;;;;;;19.96;31.55;99071.75;5133775;27;20261;-59
2023/03/06 07:38:23;;;;;;;22.25;15.40;;;;;;;18.67;33.88;99066.06;5108912;27;20698;-59
2023/03/06 07:40:51;;;;;;;21.15;15.27;;;;;;;17.12;37.13;99068.44;5111368;28;20223;-60
2023/03/06 07:43:18;;;;;;;20.38;15.07;;;;;;;16.53;38.53;99067.66;5109596;28;20223;-59
2023/03/06 07:45:46;;;;;;;18.38;14.90;;;;;;;16.42;38.59;99067.47;5111540;28;20244;-60
2023/03/06 07:48:13;;;;;;;16.15;13.85;;;;;;;16.05;38.96;99063.53;5112087;28;20233;-59
2023/03/06 07:50:40;;;;;;;23.23;14.60;;;;;;;15.80;39.43;99056.25;5111104;28;20226;-60
2023/03/06 07:53:09;;;;;;;18.05;14.20;;;;;;;15.46;39.95;99059.09;5112708;28;20219;-59
2023/03/06 07:55:39;;;;;;;14.77;13.27;;;;;;;15.22;41.06;99063.91;5112095;28;20225;-59
2023/03/06 07:58:06;;;;;;;28.83;18.87;;;;;;;14.93;41.26;99065.47;5111479;28;20214;-60
2023/03/06 08:00:33;;;;;;;16.40;13.90;;;;;;;14.36;41.92;99064.94;5111350;28;20599;-61
2023/03/06 08:03:00;;;;;;;27.60;19.00;;;;;;;14.22;42.46;99056.16;5111441;28;20659;-62
2023/03/06 08:05:26;;;;;;;22.60;15.10;;;;;;;14.15;42.63;99069.50;5109603;28;20194;-62
2023/03/06 08:07:53;;;;;;;27.17;21.13;;;;;;;14.17;42.54;99062.44;5113182;28;20229;-61
2023/03/06 08:10:22;;;;;;;20.37;15.03;;;;;;;14.34;43.00;99061.56;5113191;28;20224;-61
2023/03/06 08:12:49;;;;;;;58.80;35.63;;;;;;;14.14;42.82;99064.34;5113026;28;20670;-61
2023/03/06 08:15:15;;;;;;;46.13;32.50;;;;;;;14.10;42.86;99062.84;5112893;28;20225;-60
2023/03/06 08:17:42;;;;;;;20.73;16.03;;;;;;;14.19;43.13;99064.97;5111787;28;20194;-60
2023/03/06 08:20:10;;;;;;;23.13;18.40;;;;;;;14.32;43.32;99068.66;5112659;28;20191;-60
2023/03/06 08:22:38;;;;;;;18.10;13.97;;;;;;;14.09;43.24;99072.44;5112358;28;20198;-59
2023/03/06 08:25:05;;;;;;;18.47;14.07;;;;;;;13.98;43.30;99066.91;5112313;28;20201;-60
2023/03/06 08:27:34;;;;;;;16.60;13.33;;;;;;;13.81;43.51;99067.72;5112371;28;20226;-60
2023/03/06 08:30:01;;;;;;;16.60;13.83;;;;;;;13.53;44.09;99059.56;5112493;28;20205;-59
2023/03/06 08:32:29;;;;;;;19.17;13.77;;;;;;;13.50;44.35;99046.66;5112363;28;20204;-61
2023/03/06 08:34:55;;;;;;;21.20;14.43;;;;;;;13.52;43.88;99052.66;5112344;28;20226;-61
2023/03/06 08:37:22;;;;;;;15.40;13.60;;;;;;;13.59;44.06;99047.97;5112664;28;20186;-61
2023/03/06 08:39:49;;;;;;;20.13;13.73;;;;;;;13.80;43.38;99053.00;5112001;28;20205;-61
2023/03/06 08:42:16;;;;;;;15.93;13.97;;;;;;;13.72;43.08;99039.50;5112210;28;20205;-60
2023/03/06 08:44:45;;;;;;;18.20;14.20;;;;;;;13.55;43.30;99043.81;5111994;28;20202;-60
2023/03/06 08:47:12;;;;;;;18.03;13.80;;;;;;;13.26;44.41;99045.22;5111809;28;20223;-60
2023/03/06 08:49:39;;;;;;;18.90;14.50;;;;;;;13.04;45.06;99046.19;5112085;28;20651;-60
2023/03/06 08:52:07;;;;;;;24.27;15.23;;;;;;;12.97;44.84;99042.19;5111632;28;20562;-60
2023/03/06 08:54:34;;;;;;;19.43;15.27;;;;;;;13.13;45.12;99036.25;5103058;28;20211;-61
2023/03/06 08:57:02;;;;;;;22.23;16.83;;;;;;;13.13;45.53;99041.47;5091962;28;20253;-61
2023/03/06 08:59:29;;;;;;;21.77;15.10;;;;;;;13.08;45.76;99036.50;5091404;28;20191;-59
2023/03/06 09:01:57;;;;;;;22.33;15.20;;;;;;;13.15;45.40;99035.31;5096708;28;20650;-60
2023/03/06 09:04:24;;;;;;;22.73;16.97;;;;;;;12.94;45.52;99038.88;5111956;28;20199;-61
2023/03/06 09:06:51;;;;;;;20.90;15.40;;;;;;;13.00;45.40;99034.22;5104954;28;20230;-61
2023/03/06 09:09:18;;;;;;;25.27;15.97;;;;;;;13.00;45.53;99031.63;5111940;28;21242;-59
2023/03/06 09:11:45;;;;;;;28.53;17.27;;;;;;;13.13;45.59;99023.22;5111647;28;20194;-59
2023/03/06 09:14:12;;;;;;;36.20;20.40;;;;;;;13.24;46.03;99021.84;5110597;28;20651;-59
2023/03/06 09:16:38;;;;;;;24.70;16.17;;;;;;;13.20;45.16;99014.25;5105705;28;20224;-60
2023/03/06 09:19:07;;;;;;;26.27;15.90;;;;;;;13.17;46.49;99015.25;5110396;28;20237;-59
2023/03/06 09:21:33;;;;;;;24.20;16.20;;;;;;;13.17;45.91;99022.22;5110046;28;20226;-60
2023/03/06 09:24:00;;;;;;;27.00;16.70;;;;;;;13.15;46.55;99014.47;5110446;28;20228;-60
2023/03/06 09:26:27;;;;;;;28.17;15.73;;;;;;;13.10;45.14;99009.41;5110459;28;20226;-59
2023/03/06 09:28:55;;;;;;;19.10;14.53;;;;;;;13.04;45.66;99022.75;5109976;28;20289;-59
2023/03/06 09:31:21;;;;;;;23.10;14.77;;;;;;;12.96;45.86;99019.66;5110878;28;20680;-62
2023/03/06 09:33:48;;;;;;;26.53;16.13;;;;;;;13.02;46.13;99019.38;5110708;28;20194;-62
2023/03/06 09:36:19;;;;;;;29.40;15.90;;;;;;;12.95;46.19;99014.53;5110577;28;20194;-61
2023/03/06 09:38:48;;;;;;;20.07;14.30;;;;;;;12.97;46.24;99012.69;5110564;28;20198;-62
2023/03/06 09:41:31;;;;;;;22.33;14.70;;;;;;;13.09;45.93;99014.72;5110683;28;20198;-59
2023/03/06 09:44:04;;;;;;;22.10;15.13;;;;;;;13.08;46.04;99019.09;5108281;28;20208;-60
2023/03/06 09:46:47;;;;;;;18.87;13.80;;;;;;;12.96;46.56;99011.00;5110011;28;20588;-60
2023/03/06 09:49:37;;;;;;;17.33;14.00;;;;;;;12.99;46.59;99003.88;5110346;28;20202;-60
2023/03/06 09:52:16;;;;;;;18.20;14.20;;;;;;;13.07;46.33;99000.94;5110454;28;20191;-60
2023/03/06 09:54:46;;;;;;;19.87;14.10;;;;;;;13.08;46.25;99008.69;5110252;28;20207;-60
2023/03/06 09:57:20;;;;;;;20.87;14.10;;;;;;;13.13;47.16;99002.38;5110487;28;20198;-59
2023/03/06 09:59:50;;;;;;;19.33;13.00;;;;;;;13.10;46.67;98993.78;5110220;28;20202;-59
2023/03/06 10:02:24;;;;;;;16.07;12.77;;;;;;;13.02;46.68;98980.28;5109801;28;20198;-62
2023/03/06 10:04:58;;;;;;;16.90;12.40;;;;;;;13.05;46.93;98995.78;5107637;28;20190;-61
2023/03/06 10:07:38;;;;;;;18.23;12.93;;;;;;;13.10;46.57;99005.97;5096497;28;20261;-63
2023/03/06 10:10:11;;;;;;;20.33;13.37;;;;;;;13.00;47.16;99000.34;5089926;28;20227;-61
2023/03/06 10:12:46;;;;;;;22.53;14.83;;;;;;;13.20;46.69;98996.88;5088473;28;20231;-62
2023/03/06 10:15:16;;;;;;;18.90;12.53;;;;;;;13.23;45.77;98993.25;5089391;28;20226;-59
2023/03/06 10:17:44;;;;;;;19.53;14.20;;;;;;;13.20;46.62;98988.19;5088829;28;20241;-58
2023/03/06 10:20:19;;;;;;;17.40;14.50;;;;;;;13.28;46.46;98975.63;5089768;28;20605;-59
2023/03/06 10:23:01;;;;;;;23.23;14.90;;;;;;;13.41;47.00;98989.75;5087844;28;20217;-61
2023/03/06 10:25:31;;;;;;;19.60;13.67;;;;;;;13.52;46.21;98984.03;5088584;28;20227;-62
2023/03/06 10:28:09;;;;;;;21.03;15.30;;;;;;;13.70;46.44;98981.34;5088940;28;20227;-61
2023/03/06 10:30:43;;;;;;;30.40;18.27;;;;;;;13.84;46.64;98983.25;5088455;28;20284;-59
2023/03/06 10:33:28;;;;;;;25.33;17.70;;;;;;;13.94;45.95;98978.41;5087975;28;20205;-59
2023/03/06 10:35:56;;;;;;;17.60;13.63;;;;;;;13.74;44.96;98962.03;5090277;28;20225;-59
2023/03/06 10:38:26;;;;;;;29.03;18.83;;;;;;;13.75;45.82;98981.97;5109203;28;20638;-59
2023/03/06 10:41:05;;;;;;;19.67;13.90;;;;;;;13.78;45.15;98973.97;5109510;28;20293;-58
2023/03/06 10:43:32;;;;;;;17.33;14.07;;;;;;;13.89;45.29;98967.34;5108614;28;20199;-59
2023/03/06 10:45:59;;;;;;;21.80;15.57;;;;;;;13.86;45.42;98967.53;5109466;28;20194;-60
2023/03/06 10:48:28;;;;;;;19.43;14.13;;;;;;;13.81;46.19;98952.97;5109058;28;20702;-59
2023/03/06 10:51:14;;;;;;;19.70;13.83;;;;;;;13.87;46.99;98932.72;5109845;28;20591;-59
2023/03/06 10:53:52;;;;;;;18.00;13.83;;;;;;;14.05;45.77;98950.00;5104424;28;20297;-59
2023/03/06 10:56:28;;;;;;;20.80;13.13;;;;;;;13.98;45.77;98940.81;5109670;28;20201;-58
2023/03/06 10:59:13;;;;;;;17.90;12.67;;;;;;;14.08;46.00;98936.81;5109789;28;20600;-63
2023/03/06 11:01:42;;;;;;;22.80;14.30;;;;;;;14.11;45.87;98932.25;5109167;28;20698;-62
2023/03/06 11:04:22;;;;;;;17.10;13.20;;;;;;;14.12;45.82;98930.50;5109775;28;20601;-58
2023/03/06 11:07:04;;;;;;;15.00;11.97;;;;;;;14.12;45.34;98925.28;5109066;28;20198;-62
2023/03/06 11:09:33;;;;;;;23.20;12.33;;;;;;;14.01;45.72;98920.63;5109395;28;20202;-61
2023/03/06 11:12:20;;;;;;;17.43;12.93;;;;;;;14.09;45.62;98921.06;5109525;28;20635;-61
2023/03/06 11:14:48;;;;;;;21.67;15.60;;;;;;;14.12;46.22;98926.13;5109609;28;20687;-60
2023/03/06 11:17:28;;;;;;;17.67;12.73;;;;;;;14.09;45.33;98910.63;5109714;28;20277;-61
2023/03/06 11:20:15;;;;;;;16.63;12.63;;;;;;;14.02;45.57;98909.25;5109640;28;20259;-61
2023/03/06 11:22:45;;;;;;;14.43;12.20;;;;;;;14.24;45.38;98908.13;5109405;28;20206;-60
2023/03/06 11:25:16;;;;;;;26.23;16.93;;;;;;;14.25;46.06;98899.38;5110991;28;20195;-60
2023/03/06 11:27:46;;;;;;;28.97;20.40;;;;;;;14.30;45.35;98898.22;5112943;28;20229;-59
2023/03/06 11:30:18;;;;;;;38.20;22.93;;;;;;;14.31;45.23;98886.84;5113124;28;20204;-60